createdAt,value
2019-01-08T00:00:52.293Z,2.80
2019-01-08T00:03:33.652Z,2.90
2019-01-08T00:06:15.073Z,3.67
2019-01-08T00:08:56.702Z,3.37
2019-01-08T00:11:38.577Z,3.40
2019-01-08T00:14:19.974Z,2.97
2019-01-08T00:17:01.893Z,4.57
2019-01-08T00:19:43.073Z,4.70
2019-01-08T00:22:24.588Z,4.43
2019-01-08T00:25:05.918Z,5.83
2019-01-08T00:27:47.617Z,4.57
2019-01-08T00:30:29.146Z,4.50
2019-01-08T00:33:10.382Z,5.30
2019-01-08T00:35:51.773Z,5.53
2019-01-08T00:38:33.479Z,5.80
2019-01-08T00:41:14.771Z,6.33
2019-01-08T00:43:56.272Z,6.87
2019-01-08T00:46:37.472Z,8.10
2019-01-08T00:49:19.146Z,7.63
2019-01-08T00:52:00.314Z,8.20
2019-01-08T00:54:41.755Z,7.90
2019-01-08T00:57:23.172Z,9.43
2019-01-08T01:00:05.154Z,9.13
2019-01-08T01:02:46.570Z,10.40
2019-01-08T01:05:28.369Z,8.77
2019-01-08T01:08:09.446Z,9.43
2019-01-08T01:10:50.667Z,8.77
2019-01-08T01:13:32.004Z,4.17
2019-01-08T01:16:13.693Z,4.70
2019-01-08T01:18:55.127Z,4.17
2019-01-08T01:21:36.284Z,4.53
2019-01-08T01:27:00.372Z,4.87
2019-01-08T01:29:41.352Z,5.60
2019-01-08T01:32:22.817Z,5.50
2019-01-08T01:35:04.251Z,6.00
2019-01-08T01:37:44.397Z,7.27
2019-01-08T01:40:33.275Z,6.57
2019-01-08T01:46:45.973Z,6.20
2019-01-08T02:04:52.326Z,3.87
2019-01-08T02:08:00.042Z,4.03
2019-01-08T02:20:06.791Z,2.47
2019-01-08T02:32:27.236Z,3.03
2019-01-08T02:38:24.873Z,2.63
2019-01-08T02:41:15.107Z,2.40
2019-01-08T02:44:05.804Z,3.37
2019-01-08T02:50:05.160Z,2.40
2019-01-08T02:52:55.876Z,2.23
2019-01-08T02:55:45.965Z,2.10
2019-01-08T03:04:17.552Z,1.83
2019-01-08T03:10:25.007Z,1.50
2019-01-08T03:19:25.391Z,1.97
2019-01-08T03:31:07.689Z,1.77
2019-01-08T03:33:49.351Z,1.93
2019-01-08T03:36:33.899Z,1.50
2019-01-08T03:39:15.382Z,1.53
2019-01-08T03:41:56.804Z,3.23
2019-01-08T03:44:38.397Z,1.50
2019-01-08T03:47:20.022Z,1.70
2019-01-08T03:50:01.678Z,1.90
2019-01-08T03:52:43.300Z,1.53
2019-01-08T03:58:07.293Z,3.03
2019-01-08T04:00:48.471Z,1.57
2019-01-08T04:03:30.255Z,2.07
2019-01-08T04:06:11.922Z,2.60
2019-01-08T04:08:53.693Z,2.10
2019-01-08T04:11:35.354Z,1.80
2019-01-08T04:14:16.158Z,3.43
2019-01-08T04:16:57.657Z,2.03
2019-01-08T04:19:39.058Z,2.33
2019-01-08T04:22:20.554Z,2.37
2019-01-08T04:25:02.144Z,2.50
2019-01-08T04:27:43.746Z,2.70
2019-01-08T04:30:25.314Z,1.90
2019-01-08T04:33:07.107Z,1.77
2019-01-08T04:35:48.301Z,1.60
2019-01-08T04:38:29.771Z,1.67
2019-01-08T04:41:13.720Z,1.60
2019-01-08T04:43:54.994Z,1.77
2019-01-08T04:46:36.391Z,1.80
2019-01-08T04:51:56.866Z,1.87
2019-01-08T04:54:38.274Z,2.20
2019-01-08T04:57:19.942Z,2.10
2019-01-08T05:00:01.554Z,1.50
2019-01-08T05:02:43.104Z,1.87
2019-01-08T05:05:23.990Z,2.10
2019-01-08T05:08:05.269Z,2.20
2019-01-08T05:10:46.757Z,2.00
2019-01-08T05:13:28.025Z,1.80
2019-01-08T05:16:09.669Z,1.30
2019-01-08T05:18:51.502Z,1.77
2019-01-08T05:24:15.616Z,2.00
2019-01-08T05:26:56.461Z,2.27
2019-01-08T05:29:38.167Z,1.67
2019-01-08T05:32:19.835Z,2.03
2019-01-08T05:35:01.695Z,1.37
2019-01-08T05:40:24.936Z,2.33
2019-01-08T05:43:06.684Z,2.27
2019-01-08T05:45:47.542Z,2.13
2019-01-08T05:48:29.305Z,1.93
2019-01-08T05:51:10.576Z,3.87
2019-01-08T05:53:52.134Z,2.70
2019-01-08T05:56:33.054Z,2.03
2019-01-08T05:59:14.212Z,2.53
2019-01-08T06:01:58.403Z,2.10
2019-01-08T06:04:39.595Z,2.37
2019-01-08T06:07:20.519Z,2.53
2019-01-08T06:10:01.307Z,2.20
2019-01-08T06:12:42.871Z,1.77
2019-01-08T06:15:24.483Z,2.23
2019-01-08T06:18:05.679Z,1.80
2019-01-08T06:20:47.251Z,1.57
2019-01-08T06:23:28.582Z,3.20
2019-01-08T06:26:12.511Z,2.37
2019-01-08T06:28:54.143Z,1.97
2019-01-08T06:31:35.016Z,2.20
2019-01-08T06:34:16.289Z,2.30
2019-01-08T06:36:57.694Z,2.00
2019-01-08T06:39:39.003Z,2.00
2019-01-08T06:42:20.559Z,2.23
2019-01-08T06:45:02.232Z,3.67
2019-01-08T06:47:43.770Z,2.73
2019-01-08T06:50:25.304Z,1.80
2019-01-08T06:53:06.139Z,2.40
2019-01-08T06:55:47.767Z,2.13
2019-01-08T06:58:28.639Z,2.63
2019-01-08T07:01:09.626Z,2.30
2019-01-08T07:03:50.495Z,2.50
2019-01-08T07:06:35.241Z,2.00
2019-01-08T07:09:16.847Z,2.03
2019-01-08T07:11:57.704Z,2.17
2019-01-08T07:14:39.195Z,1.97
2019-01-08T07:17:20.968Z,2.47
2019-01-08T07:20:02.312Z,1.80
2019-01-08T07:22:43.593Z,2.90
2019-01-08T07:25:25.282Z,2.43
2019-01-08T07:28:07.126Z,1.80
2019-01-08T07:30:48.712Z,1.90
2019-01-08T07:33:30.205Z,2.47
2019-01-08T07:36:10.386Z,2.07
2019-01-08T07:42:01.485Z,2.20
2019-01-08T07:48:12.093Z,1.73
2019-01-08T07:51:02.557Z,2.13
2019-01-08T07:56:53.927Z,2.10
2019-01-08T07:59:32.437Z,2.33
2019-01-08T08:02:35.120Z,2.67
2019-01-08T08:11:40.046Z,2.17
2019-01-08T08:14:28.847Z,2.87
2019-01-08T08:17:19.099Z,2.03
2019-01-08T08:20:08.602Z,2.17
2019-01-08T08:22:38.587Z,2.07
2019-01-08T08:25:09.372Z,2.40
2019-01-08T08:27:39.276Z,1.90
2019-01-08T08:30:10.133Z,2.10
2019-01-08T08:32:42.490Z,2.17
2019-01-08T08:35:12.590Z,3.00
2019-01-08T08:37:42.631Z,2.50
2019-01-08T08:40:12.681Z,1.77
2019-01-08T08:42:42.482Z,2.30
2019-01-08T08:45:12.361Z,3.40
2019-01-08T08:47:42.370Z,2.17
2019-01-08T08:50:12.142Z,2.17
2019-01-08T08:52:42.063Z,1.83
2019-01-08T08:55:12.573Z,2.07
2019-01-08T08:57:42.337Z,2.07
2019-01-08T09:00:12.474Z,1.83
2019-01-08T09:02:42.592Z,2.03
2019-01-08T09:05:12.345Z,2.30
2019-01-08T09:07:42.923Z,1.80
2019-01-08T09:10:13.085Z,2.20
2019-01-08T09:12:46.744Z,1.70
2019-01-08T09:15:16.700Z,2.03
2019-01-08T09:17:50.239Z,1.97
2019-01-08T09:20:20.027Z,1.60
2019-01-08T09:22:52.854Z,1.30
2019-01-08T09:25:22.964Z,1.30
2019-01-08T09:27:55.802Z,0.97
2019-01-08T09:30:25.851Z,1.90
2019-01-08T09:33:14.628Z,1.70
2019-01-08T09:35:44.662Z,1.37
2019-01-08T09:38:14.389Z,1.57
2019-01-08T09:40:44.317Z,1.43
2019-01-08T09:43:14.343Z,1.87
2019-01-08T09:45:44.092Z,1.67
2019-01-08T09:48:33.027Z,3.07
2019-01-08T09:51:23.202Z,1.40
2019-01-08T09:53:53.311Z,1.63
2019-01-08T09:56:23.046Z,2.00
2019-01-08T09:58:52.847Z,1.80
2019-01-08T10:04:21.932Z,1.20
2019-01-08T10:06:52.146Z,1.93
2019-01-08T10:11:49.903Z,1.90
2019-01-08T10:14:38.779Z,1.50
2019-01-08T10:17:08.838Z,1.50
2019-01-08T10:19:39.164Z,1.50
2019-01-08T10:22:09.145Z,1.57
2019-01-08T10:24:58.011Z,1.40
2019-01-08T10:30:35.966Z,1.63
2019-01-08T10:33:05.762Z,1.50
2019-01-08T10:35:35.884Z,1.20
2019-01-08T10:38:07.063Z,1.17
2019-01-08T10:40:37.053Z,1.17
2019-01-08T10:43:25.867Z,1.73
2019-01-08T10:45:55.601Z,1.63
2019-01-08T10:48:44.548Z,1.73
2019-01-08T10:51:14.406Z,1.20
2019-01-08T10:53:44.258Z,1.63
2019-01-08T10:56:14.402Z,1.40
2019-01-08T10:59:07.576Z,1.50
2019-01-08T11:01:40.543Z,1.80
2019-01-08T11:04:06.469Z,1.83
2019-01-08T11:06:36.257Z,2.33
2019-01-08T11:09:07.624Z,1.73
2019-01-08T11:11:37.382Z,1.87
2019-01-08T11:14:07.122Z,2.00
2019-01-08T11:16:58.636Z,1.87
2019-01-08T11:19:28.411Z,2.57
2019-01-08T11:22:17.256Z,1.73
2019-01-08T11:24:47.135Z,1.60
2019-01-08T11:27:17.301Z,1.67
2019-01-08T11:29:47.221Z,1.70
2019-01-08T11:38:44.600Z,2.50
2019-01-08T11:41:14.413Z,1.50
2019-01-08T11:43:44.356Z,1.50
2019-01-08T11:46:33.125Z,1.53
2019-01-08T11:49:03.024Z,1.50
2019-01-08T11:51:32.766Z,1.10
2019-01-08T11:54:02.818Z,1.57
2019-01-08T11:56:32.613Z,1.60
2019-01-08T11:59:02.420Z,2.30
2019-01-08T12:01:32.664Z,2.27
2019-01-08T12:04:40.315Z,1.60
2019-01-08T12:07:31.354Z,1.73
2019-01-08T12:13:28.819Z,2.60
2019-01-08T12:15:58.666Z,2.03
2019-01-08T12:21:36.151Z,2.90
2019-01-08T12:24:06.192Z,2.17
2019-01-08T12:26:54.956Z,2.07
2019-01-08T12:29:25.045Z,2.00
2019-01-08T12:31:55.873Z,2.93
2019-01-08T12:34:44.802Z,2.83
2019-01-08T12:37:14.666Z,3.37
2019-01-08T12:40:03.457Z,3.47
2019-01-08T12:42:33.305Z,3.77
2019-01-08T12:45:03.510Z,2.60
2019-01-08T12:47:33.380Z,2.70
2019-01-08T12:50:22.218Z,1.80
2019-01-08T12:53:11.120Z,2.60
2019-01-08T12:55:41.213Z,3.00
2019-01-08T12:58:11.091Z,3.53
2019-01-08T13:00:40.928Z,3.60
2019-01-08T13:03:11.023Z,3.97
2019-01-08T13:05:40.763Z,3.63
2019-01-08T13:08:10.605Z,2.10
2019-01-08T13:10:40.410Z,2.33
2019-01-08T13:13:10.517Z,2.60
2019-01-08T13:15:41.671Z,3.20
2019-01-08T13:18:11.521Z,3.00
2019-01-08T13:20:41.211Z,2.50
2019-01-08T13:23:30.045Z,3.53
2019-01-08T13:26:18.801Z,2.90
2019-01-08T13:28:48.905Z,2.17
2019-01-08T13:31:18.902Z,1.87
2019-01-08T13:33:48.698Z,3.13
2019-01-08T13:36:37.488Z,1.83
2019-01-08T13:39:08.363Z,1.60
2019-01-08T13:41:38.375Z,1.60
2019-01-08T13:44:08.223Z,1.00
2019-01-08T13:46:38.029Z,1.00
2019-01-08T13:49:08.112Z,1.60
2019-01-08T13:51:37.995Z,1.10
2019-01-08T13:54:07.783Z,1.57
2019-01-08T13:56:57.330Z,1.17
2019-01-08T13:59:47.563Z,1.80
2019-01-08T14:02:17.729Z,2.00
2019-01-08T14:04:47.618Z,1.67
2019-01-08T14:07:17.503Z,2.93
2019-01-08T14:10:06.627Z,1.40
2019-01-08T14:12:55.676Z,1.40
2019-01-08T14:15:44.458Z,1.70
2019-01-08T14:18:46.415Z,1.70
2019-01-08T14:21:25.023Z,2.00
2019-01-08T14:23:54.844Z,2.90
2019-01-08T14:27:02.611Z,3.10
2019-01-08T14:29:52.667Z,2.20
2019-01-08T14:35:04.503Z,2.37
2019-01-08T14:37:53.243Z,3.07
2019-01-08T14:46:34.360Z,3.17
2019-01-08T14:49:04.596Z,2.63
2019-01-08T14:51:34.481Z,2.13
2019-01-08T14:54:23.287Z,2.30
2019-01-08T14:57:12.071Z,2.20
2019-01-08T14:59:42.238Z,2.37
2019-01-08T15:02:12.094Z,2.00
2019-01-08T15:04:53.321Z,1.90
2019-01-08T15:07:23.184Z,1.90
2019-01-08T15:09:52.975Z,2.50
2019-01-08T15:12:23.182Z,2.37
2019-01-08T15:14:52.930Z,2.83
2019-01-08T15:17:22.749Z,2.00
2019-01-08T15:19:52.940Z,2.83
2019-01-08T15:22:22.845Z,3.93
2019-01-08T15:24:52.672Z,2.03
2019-01-08T15:27:41.499Z,2.47
2019-01-08T15:33:02.966Z,3.57
2019-01-08T15:35:36.465Z,3.20
2019-01-08T15:38:06.934Z,3.17
2019-01-08T15:40:37.748Z,2.63
2019-01-08T15:43:09.267Z,3.13
2019-01-08T15:45:39.124Z,2.90
2019-01-08T15:48:08.994Z,3.60
2019-01-08T15:50:38.874Z,2.57
2019-01-08T15:53:09.036Z,3.33
2019-01-08T15:55:38.859Z,2.67
2019-01-08T15:58:39.368Z,2.47
2019-01-08T16:04:27.634Z,0.73
2019-01-08T16:07:09.175Z,0.70
2019-01-08T16:09:44.044Z,0.70
2019-01-08T16:12:32.795Z,0.90
2019-01-08T16:15:05.247Z,1.10
2019-01-08T16:17:35.030Z,1.27
2019-01-08T16:20:05.347Z,1.20
2019-01-08T16:22:36.509Z,1.87
2019-01-08T16:25:25.264Z,1.80
2019-01-08T16:28:14.183Z,2.67
2019-01-08T16:30:43.922Z,2.23
2019-01-08T16:33:16.237Z,2.07
2019-01-08T16:35:45.697Z,2.17
2019-01-08T16:38:15.581Z,3.03
2019-01-08T16:40:45.738Z,2.90
2019-01-08T16:43:36.102Z,1.93
2019-01-08T16:46:24.845Z,2.97
2019-01-08T16:48:54.660Z,2.47
2019-01-08T16:51:24.889Z,1.73
2019-01-08T16:53:54.815Z,1.90
2019-01-08T16:56:24.823Z,2.77
2019-01-08T16:58:55.041Z,2.43
2019-01-08T17:01:25.150Z,2.70
2019-01-08T17:03:55.071Z,4.50
2019-01-08T17:06:25.236Z,4.43
2019-01-08T17:08:55.088Z,3.30
2019-01-08T17:11:25.031Z,2.20
2019-01-08T17:13:55.243Z,2.00
2019-01-08T17:16:44.080Z,2.50
2019-01-08T17:19:14.204Z,2.17
2019-01-08T17:21:44.050Z,4.67
2019-01-08T17:24:13.940Z,2.97
2019-01-08T17:27:02.722Z,2.27
2019-01-08T17:29:32.581Z,2.00
2019-01-08T17:35:49.609Z,1.67
2019-01-08T17:38:38.398Z,1.73
2019-01-08T17:41:39.436Z,1.30
2019-01-08T17:43:59.424Z,2.70
2019-01-08T17:46:29.276Z,1.97
2019-01-08T17:49:18.058Z,2.23
2019-01-08T17:51:48.024Z,2.37
2019-01-08T17:54:44.963Z,2.03
2019-01-08T17:57:14.794Z,1.60
2019-01-08T17:59:52.003Z,2.10
2019-01-08T18:02:22.113Z,1.60
2019-01-08T18:05:11.531Z,1.57
2019-01-08T18:07:41.699Z,2.03
2019-01-08T18:10:13.452Z,2.70
2019-01-08T18:13:13.718Z,1.50
2019-01-08T18:18:21.692Z,2.47
2019-01-08T18:24:19.921Z,2.40
2019-01-08T18:27:08.749Z,2.10
2019-01-08T18:29:38.938Z,2.07
2019-01-08T18:32:27.817Z,2.60
2019-01-08T18:35:18.009Z,2.03
2019-01-08T18:37:48.190Z,2.10
2019-01-08T18:40:18.151Z,2.70
2019-01-08T18:43:19.248Z,1.77
2019-01-08T18:45:57.556Z,2.20
2019-01-08T18:51:27.175Z,3.30
2019-01-08T18:54:34.211Z,2.20
2019-01-08T18:57:23.064Z,2.13
2019-01-08T19:00:12.291Z,1.77
2019-01-08T19:02:42.231Z,2.10
2019-01-08T19:05:12.540Z,2.60
2019-01-08T19:08:01.581Z,2.23
2019-01-08T19:10:31.918Z,2.23
2019-01-08T19:13:15.583Z,2.07
2019-01-08T19:15:57.114Z,1.93
2019-01-08T19:18:39.035Z,3.23
2019-01-08T19:21:20.529Z,2.33
2019-01-08T19:24:02.791Z,2.57
2019-01-08T19:26:22.441Z,2.17
2019-01-08T19:31:58.309Z,3.40
2019-01-08T19:37:36.339Z,2.70
2019-01-08T19:40:07.701Z,2.47
2019-01-08T19:43:10.981Z,2.40
2019-01-08T19:46:08.738Z,2.10
2019-01-08T19:48:39.519Z,2.80
2019-01-08T19:51:28.954Z,1.90
2019-01-08T19:53:59.123Z,1.87
2019-01-08T20:00:16.769Z,1.83
2019-01-08T20:03:26.311Z,2.77
2019-01-08T20:06:35.428Z,1.97
2019-01-08T20:09:27.946Z,2.83
2019-01-08T20:12:08.736Z,3.60
2019-01-08T20:14:50.576Z,1.87
2019-01-08T20:17:39.686Z,3.10
2019-01-08T20:23:36.514Z,2.30
2019-01-08T20:26:14.360Z,2.67
2019-01-08T20:28:55.975Z,1.97
2019-01-08T20:31:34.826Z,1.80
2019-01-08T20:34:26.814Z,1.60
2019-01-08T20:37:33.261Z,1.70
2019-01-08T20:40:23.137Z,1.97
2019-01-08T20:43:23.948Z,1.90
2019-01-08T20:46:03.085Z,1.90
2019-01-08T20:48:33.449Z,1.60
2019-01-08T20:51:04.062Z,2.00
2019-01-08T20:53:34.406Z,1.73
2019-01-08T20:56:05.248Z,1.53
2019-01-08T20:58:35.515Z,1.73
2019-01-08T21:01:06.146Z,1.97
2019-01-08T21:03:36.680Z,3.23
2019-01-08T21:06:06.715Z,2.30
2019-01-08T21:08:55.729Z,1.60
2019-01-08T21:11:25.924Z,2.53
2019-01-08T21:14:10.336Z,2.20
2019-01-08T21:16:53.080Z,1.53
2019-01-08T21:22:26.740Z,2.47
2019-01-08T21:25:08.942Z,1.83
2019-01-08T21:27:50.442Z,1.67
2019-01-08T21:30:32.057Z,2.63
2019-01-08T21:33:13.562Z,2.03
2019-01-08T21:35:55.833Z,1.67
2019-01-08T21:38:37.325Z,1.73
2019-01-08T21:41:58.613Z,2.47
2019-01-08T21:44:37.743Z,1.87
2019-01-08T21:47:27.344Z,1.63
2019-01-08T21:53:37.616Z,2.60
2019-01-08T21:56:16.685Z,1.63
2019-01-08T21:59:05.509Z,2.27
2019-01-08T22:05:22.829Z,2.67
2019-01-08T22:08:11.923Z,2.10
2019-01-08T22:13:52.744Z,1.97
2019-01-08T22:16:34.151Z,1.80
2019-01-08T22:19:15.779Z,3.13
2019-01-08T22:21:56.807Z,1.57
2019-01-08T22:24:38.396Z,2.33
2019-01-08T22:27:20.103Z,2.23
2019-01-08T22:33:37.285Z,1.70
2019-01-08T22:42:41.789Z,2.20
2019-01-08T22:45:30.646Z,3.03
2019-01-08T22:48:19.440Z,2.03
2019-01-08T22:54:08.989Z,2.13
2019-01-08T22:56:39.242Z,2.27
2019-01-08T22:59:39.705Z,2.00
2019-01-08T23:08:27.099Z,4.47
2019-01-08T23:14:17.854Z,1.87
2019-01-08T23:16:58.798Z,3.87
2019-01-08T23:19:40.525Z,3.27
2019-01-08T23:22:22.361Z,2.93
2019-01-08T23:25:04.812Z,3.60
2019-01-08T23:27:46.329Z,3.40
2019-01-08T23:30:28.068Z,2.93
2019-01-08T23:33:10.131Z,2.70
2019-01-08T23:35:51.931Z,3.30
2019-01-08T23:38:33.860Z,2.13
2019-01-08T23:41:15.476Z,3.13
2019-01-08T23:52:44.913Z,3.07
2019-01-08T23:55:15.768Z,2.73
2019-01-08T23:57:50.687Z,3.33
